Latest Weather Observations for Southern Cross Airport

IDW60801

Issued at 10:43 am WST Saturday 17 November 2018 (issued every 10 minutes, with the page automatically refreshed every 10 minutes)

About weather observations | Map of weather stations | Latest weather observations for WA | Other Formats
Station Details ID: 012320 Name: SOUTHERN CROSS AIRFIELD Lat: -31.24 Lon: 119.36 Height: 347.4 m
Data from the previous 72 hours. | See also: Recent months at Southern Cross Airport
Date/Time
WST
Temp
°C
App
Temp
°C
Dew
Point
°C
Rel
Hum
%
Delta-T
°C
Wind Press
QNH
hPa
Press
MSL
hPa
Rain since
9am
mm
Dir  Spd
km/h
Gust
km/h
Spd
kts
Gust
kts
17/10:30am 32.8 27.9 11.3 27 12.8 NNW 28 41 15 22 1011.0 1009.6 0.2
17/10:00am 32.2 29.0 11.4 28 12.3 NNW 19 30 10 16 1011.7 1010.2 0.2
17/09:30am 31.4 27.3 10.2 27 12.3 NNW 22 30 12 16 1012.1 1010.6 0.2
17/09:00am 29.8 25.0 8.8 27 11.8 N 24 30 13 16 1012.5 1011.0 2.0
17/08:30am 27.4 23.2 7.3 28 10.9 N 19 26 10 14 1013.0 1011.6 2.0
17/08:00am 27.4 23.0 7.3 28 10.9 N 20 30 11 16 1013.0 1011.6 2.0
17/07:30am 27.8 23.4 6.6 26 11.4 N 19 28 10 15 1012.8 1011.3 2.0
17/07:00am 26.1 23.1 7.7 31 10.0 N 13 20 7 11 1012.8 1011.3 2.0
17/06:30am 23.4 22.4 11.1 46 7.0 N 7 11 4 6 1013.0 1011.6 2.0
17/06:00am 21.9 20.8 10.7 49 6.3 N 7 11 4 6 1012.9 1011.4 2.0
17/05:30am 19.7 18.9 11.2 58 4.7 NNE 6 7 3 4 1012.7 1011.2 2.0
17/05:00am 18.9 19.0 11.5 62 4.1 NW 2 6 1 3 1012.8 1011.3 2.0
17/04:30am 18.4 17.8 11.7 65 3.7 WNW 6 7 3 4 1012.8 1011.3 1.8
17/04:00am 20.2 20.6 11.1 56 5.1 CALM 0 6 0 3 1012.5 1011.0 1.8
17/03:30am 22.1 19.6 9.6 45 6.9 ENE 13 20 7 11 1012.6 1011.1 1.8
17/03:00am 20.9 19.4 10.7 52 5.7 ENE 9 13 5 7 1012.7 1011.2 1.8
17/02:30am 21.5 19.6 10.6 50 6.1 E 11 17 6 9 1012.9 1011.4 1.8
17/02:00am 22.2 20.0 10.7 48 6.4 ENE 13 19 7 10 1013.3 1011.9 1.8
17/01:30am 22.0 19.7 10.5 48 6.4 E 13 17 7 9 1013.8 1012.4 1.8
17/01:00am 21.6 19.5 11.0 51 5.9 ENE 13 15 7 8 1014.2 1012.8 1.6
17/12:30am 23.0 20.4 10.8 46 6.9 ENE 15 20 8 11 1014.3 1012.9 1.6
17/12:00am 24.1 21.4 10.4 42 7.7 ENE 15 19 8 10 1015.0 1013.5 1.6
 
Date/Time
WST
Temp
°C
App
Temp
°C
Dew
Point
°C
Rel
Hum
%
Delta-T
°C
Wind Press
QNH
hPa
Press
MSL
hPa
Rain since
9am
mm
Dir  Spd
km/h
Gust
km/h
Spd
kts
Gust
kts
16/11:30pm 24.9 21.8 10.4 40 8.2 ENE 17 22 9 12 1015.7 1014.3 1.6
16/11:00pm 24.8 21.2 10.7 41 8.0 E 20 30 11 16 1015.7 1014.3 1.6
16/10:30pm 25.6 23.1 9.8 37 8.8 ESE 13 24 7 13 1016.7 1015.3 1.6
16/10:00pm 27.0 23.1 9.4 33 9.8 SE 20 43 11 23 1016.7 1015.3 1.6
16/09:51pm 27.4 20.9 8.3 30 10.5 SW 32 72 17 39 1017.0 1015.6 1.6
16/09:47pm 27.3 20.7 8.7 31 10.3 SW 33 72 18 39 1017.1 1015.7 1.6
16/09:46pm 27.3 20.7 8.7 31 10.3 SW 33 72 18 39 1016.5 1015.1 1.6
16/09:44pm 25.6 20.7 9.8 37 8.8 SW 26 57 14 31 1016.5 1015.1 1.6
16/09:30pm 25.8 22.6 10.0 37 8.9 ESE 17 28 9 15 1015.4 1013.9 1.4
16/09:00pm 25.7 21.9 9.9 37 8.9 E 20 32 11 17 1014.7 1013.2 1.4
16/08:30pm 25.8 21.4 10.4 38 8.7 E 24 32 13 17 1014.1 1012.7 1.4
16/08:00pm 25.6 22.0 11.7 42 8.0 E 22 35 12 19 1013.9 1012.5 1.4
16/07:30pm 26.5 22.3 11.0 38 8.9 E 24 33 13 18 1013.6 1012.2 1.4
16/07:00pm 26.9 23.0 12.2 40 8.6 E 24 33 13 18 1013.4 1012.0 1.2
16/06:30pm 27.5 24.2 12.7 40 8.8 E 22 30 12 16 1013.4 1012.0 1.2
16/06:00pm 28.8 25.4 11.4 34 10.2 E 20 28 11 15 1013.4 1012.0 1.2
16/05:30pm 29.4 25.4 11.9 34 10.3 E 24 33 13 18 1013.0 1011.6 1.0
16/05:00pm 30.4 27.0 11.4 31 11.2 E 20 28 11 15 1012.8 1011.3 1.0
16/04:30pm 31.8 28.2 9.9 26 12.6 E 19 26 10 14 1012.5 1011.0 0.8
16/04:00pm 31.9 29.5 12.7 31 11.6 ENE 17 28 9 15 1012.9 1011.4 0.6
16/03:30pm 30.3 30.1 14.8 39 9.6 SSE 9 11 5 6 1012.6 1011.1 0.4
16/03:00pm 26.4 22.8 13.2 44 7.9 SSW 24 39 13 21 1013.1 1011.7 0.2
16/02:53pm 25.8 22.2 14.3 49 6.9 S 26 39 14 21 1013.5 1012.1 0.2
16/02:33pm 25.5 21.3 12.4 44 7.7 NW 26 46 14 25 1014.5 1013.1 0.0
16/02:30pm 24.6 20.1 15.0 55 5.8 NW 32 46 17 25 1014.4 1013.0 0.0
16/02:28pm 25.0 20.0 13.9 50 6.6 NW 33 46 18 25 1014.3 1012.9 0.0
16/02:17pm 30.3 25.3 10.8 30 11.3 NNW 28 50 15 27 1013.6 1012.2 0.0
16/02:00pm 34.7 29.8 6.9 18 15.5 NNE 22 35 12 19 1013.4 1012.0 0.0
16/01:30pm 34.8 31.2 8.5 20 15.1 N 17 30 9 16 1014.1 1012.7 0.0
16/01:00pm 34.3 31.6 8.8 21 14.6 N 13 22 7 12 1014.5 1013.1 0.0
16/12:30pm 33.0 29.8 8.5 22 13.9 ENE 15 28 8 15 1015.0 1013.5 0.0
16/12:00pm 32.7 29.9 10.1 25 13.1 ENE 15 26 8 14 1015.6 1014.2 0.0
16/11:30am 30.7 29.0 11.1 30 11.5 ENE 11 22 6 12 1016.2 1014.8 0.0
16/11:00am 29.9 28.0 11.9 33 10.6 ENE 13 24 7 13 1016.8 1015.4 0.0
16/10:30am 27.7 25.3 11.3 36 9.5 ENE 15 26 8 14 1017.2 1015.8 0.0
16/10:00am 26.2 23.2 11.9 41 8.3 E 19 33 10 18 1017.5 1016.1 0.0
16/09:30am 24.7 21.2 12.3 46 7.2 E 22 32 12 17 1017.8 1016.3 0.0
16/09:00am 23.6 20.5 12.3 49 6.5 ESE 20 33 11 18 1018.0 1016.5 0.0
16/08:30am 21.6 18.5 12.2 55 5.4 E 20 30 11 16 1018.4 1017.0 0.0
16/08:00am 19.0 15.5 12.3 65 3.8 ESE 22 33 12 18 1018.3 1016.9 0.0
16/07:30am 18.5 14.6 12.0 66 3.7 ESE 24 35 13 19 1018.1 1016.7 0.0
16/07:00am 18.0 13.7 12.0 68 3.4 ESE 26 39 14 21 1018.3 1016.9 0.0
16/06:30am 17.8 13.5 12.0 69 3.2 SE 26 35 14 19 1018.6 1017.2 0.0
16/06:00am 17.8 14.2 11.8 68 3.3 SE 22 28 12 15 1019.0 1017.6 0.0
16/05:30am 18.0 16.1 11.8 67 3.5 SSE 13 19 7 10 1019.0 1017.6 0.0
16/05:00am 18.4 16.8 11.5 64 3.8 SSE 11 17 6 9 1018.6 1017.2 0.0
16/04:30am 18.1 13.2 11.4 65 3.7 ENE 28 41 15 22 1017.1 1015.7 0.0
16/04:00am 17.9 11.7 11.5 66 3.5 NE 35 48 19 26 1016.6 1015.2 0.0
16/03:37am 17.9 12.3 11.5 66 3.6 ENE 32 52 17 28 1016.2 1014.8 0.0
16/03:30am 18.0 12.4 11.6 66 3.6 E 32 44 17 24 1016.2 1014.8 0.0
16/03:16am 18.1 14.0 11.4 65 3.7 ESE 24 39 13 21 1016.8 1015.4 0.0
16/03:00am 18.6 15.2 11.4 63 4.0 SE 20 26 11 14 1018.9 1017.5 0.0
16/02:30am 18.8 16.4 11.4 62 4.1 SE 15 22 8 12 1019.5 1018.1 0.0
16/02:00am 18.8 17.2 11.4 62 4.1 S 11 13 6 7 1020.2 1018.8 0.0
16/01:30am 19.3 15.5 11.1 59 4.5 WSW 22 33 12 18 1019.7 1018.3 0.0
16/01:24am 19.0 15.2 11.3 61 4.3 SSE 22 32 12 17 1019.6 1018.2 0.0
16/01:00am 19.3 13.6 11.1 59 4.5 SE 32 41 17 22 1017.5 1016.1 0.0
16/12:30am 20.3 15.3 11.0 55 5.2 SE 28 35 15 19 1017.5 1016.1 0.0
16/12:00am 21.1 16.8 10.9 52 5.7 SE 24 33 13 18 1017.7 1016.2 0.0
 
Date/Time
WST
Temp
°C
App
Temp
°C
Dew
Point
°C
Rel
Hum
%
Delta-T
°C
Wind Press
QNH
hPa
Press
MSL
hPa
Rain since
9am
mm
Dir  Spd
km/h
Gust
km/h
Spd
kts
Gust
kts
15/11:30pm 21.7 16.2 10.5 49 6.2 SE 30 41 16 22 1017.3 1015.9 0.0
15/11:00pm 22.4 16.9 10.5 47 6.6 SE 30 37 16 20 1017.9 1016.4 0.0
15/10:30pm 23.2 17.7 10.6 45 7.1 SE 30 41 16 22 1017.7 1016.2 0.0
15/10:00pm 23.6 18.1 10.6 44 7.3 SE 30 39 16 21 1017.5 1016.1 0.0
15/09:30pm 24.6 18.8 10.8 42 7.8 SE 32 43 17 23 1017.5 1016.1 0.0
15/09:00pm 25.8 18.3 10.8 39 8.5 SE 41 56 22 30 1016.8 1015.4 0.0
15/08:44pm 27.4 23.5 9.3 32 10.1 ESE 20 44 11 24 1016.4 1015.0 0.0
15/08:30pm 28.2 25.0 6.9 26 11.5 E 13 15 7 8 1015.9 1014.5 0.0
15/08:00pm 28.2 25.7 8.0 28 11.1 E 11 13 6 7 1015.8 1014.4 0.0
15/07:30pm 29.0 25.8 7.0 25 12.0 E 13 17 7 9 1015.7 1014.3 0.0
15/07:00pm 29.4 26.7 7.3 25 12.1 ENE 11 13 6 7 1015.6 1014.2 0.0
15/06:30pm 31.7 28.9 5.3 19 14.2 E 9 11 5 6 1015.4 1013.9 0.0
15/06:00pm 33.1 30.6 4.8 17 15.2 SE 7 11 4 6 1015.2 1013.7 0.0
15/05:30pm 33.7 31.3 4.4 16 15.7 W 6 11 3 6 1015.0 1013.5 0.0
15/05:00pm 34.6 31.4 3.2 14 16.5 SSE 9 13 5 7 1015.0 1013.5 0.0
15/04:30pm 35.6 33.0 4.0 14 16.9 NNW 7 13 4 7 1015.1 1013.6 0.0
15/04:00pm 34.5 31.1 4.1 15 16.2 NNW 11 17 6 9 1015.2 1013.7 0.0
15/03:30pm 35.0 31.3 2.5 13 17.0 WNW 11 24 6 13 1015.3 1013.8 0.0
15/03:00pm 34.3 31.1 3.0 14 16.4 SW 9 17 5 9 1015.5 1014.1 0.0
15/02:30pm 35.2 32.3 4.7 15 16.5 S 9 19 5 10 1015.6 1014.2 0.0
15/02:00pm 34.1 31.0 3.8 15 16.1 W 9 19 5 10 1016.0 1014.6 0.0
15/01:30pm 33.7 30.8 4.4 16 15.7 NE 9 13 5 7 1016.3 1014.9 0.0
15/01:00pm 33.7 30.0 4.4 16 15.6 N 13 28 7 15 1016.7 1015.3 0.0
15/12:30pm 33.8 29.4 4.5 16 15.7 WNW 17 28 9 15 1017.0 1015.6 0.0
15/12:00pm 32.9 28.6 7.0 20 14.3 NNW 19 30 10 16 1017.3 1015.9 0.0
15/11:30am 32.6 28.0 6.7 20 14.3 N 20 35 11 19 1017.8 1016.3 0.0
15/11:00am 31.9 26.8 7.5 22 13.6 N 24 35 13 19 1018.2 1016.8 0.0
15/10:30am 31.3 26.4 8.3 24 12.9 N 24 35 13 19 1018.6 1017.2 0.0
15/10:00am 30.4 24.7 8.2 25 12.4 N 28 39 15 21 1019.0 1017.6 0.0
15/09:30am 29.6 24.5 7.5 25 12.2 N 24 35 13 19 1019.2 1017.8 0.0
15/09:00am 28.6 22.9 8.3 28 11.2 N 28 39 15 21 1019.4 1018.0 0.0
15/08:30am 26.8 21.9 8.3 31 10.2 N 24 35 13 19 1019.4 1018.0 0.0
15/08:00am 26.1 20.7 8.1 32 9.8 N 26 35 14 19 1019.3 1017.9 0.0
15/07:30am 25.1 19.5 8.6 35 9.0 NNE 28 39 15 21 1019.1 1017.7 0.0
15/07:00am 24.2 19.2 9.4 39 8.2 NNE 26 39 14 21 1018.8 1017.4 0.0
15/06:30am 23.0 18.8 9.8 43 7.3 NNE 22 32 12 17 1018.5 1017.1 0.0
15/06:00am 21.8 18.5 9.7 46 6.6 NNE 17 24 9 13 1018.4 1017.0 0.0
15/05:30am 20.9 17.2 9.5 48 6.2 NNE 19 28 10 15 1018.1 1016.7 0.0
15/05:00am 18.9 16.8 9.9 56 4.9 NE 11 13 6 7 1017.9 1016.4 0.0
15/04:30am 18.6 16.5 9.9 57 4.7 NE 11 13 6 7 1017.3 1015.9 0.0
15/04:00am 18.3 17.1 10.2 59 4.4 NE 7 11 4 6 1017.1 1015.7 0.0
15/03:30am 18.8 17.1 9.8 56 4.9 NE 9 13 5 7 1016.8 1015.4 0.0
15/03:00am 19.6 17.9 10.0 54 5.2 E 9 13 5 7 1016.7 1015.3 0.0
15/02:30am 19.8 17.8 10.2 54 5.3 ESE 11 15 6 8 1016.6 1015.2 0.0
15/02:00am 20.6 19.3 9.8 50 5.9 E 7 13 4 7 1016.4 1015.0 0.0
15/01:30am 21.5 19.0 9.7 47 6.5 NE 13 17 7 9 1016.4 1015.0 0.0
15/01:00am 21.5 19.0 9.7 47 6.5 NE 13 19 7 10 1016.3 1014.9 0.0
15/12:30am 22.0 19.2 9.9 46 6.7 ENE 15 19 8 10 1016.5 1015.1 0.0
15/12:00am 22.3 19.4 9.8 45 6.9 ENE 15 20 8 11 1016.6 1015.2 0.0
 
Date/Time
WST
Temp
°C
App
Temp
°C
Dew
Point
°C
Rel
Hum
%
Delta-T
°C
Wind Press
QNH
hPa
Press
MSL
hPa
Rain since
9am
mm
Dir  Spd
km/h
Gust
km/h
Spd
kts
Gust
kts
14/11:30pm 22.9 19.6 9.7 43 7.3 ENE 17 24 9 13 1017.0 1015.6 0.0
14/11:00pm 23.4 20.1 9.4 41 7.7 ENE 17 20 9 11 1017.0 1015.6 0.0
14/10:30pm 23.7 20.7 9.3 40 7.9 ENE 15 20 8 11 1017.0 1015.6 0.0
14/10:00pm 24.3 20.9 9.1 38 8.3 ENE 17 22 9 12 1017.1 1015.7 0.0
14/09:30pm 24.8 21.8 9.1 37 8.7 ENE 15 20 8 11 1017.3 1015.9 0.0
14/09:00pm 25.3 22.3 9.2 36 8.9 ENE 15 20 8 11 1017.4 1016.0 0.0
14/08:30pm 26.2 23.2 9.1 34 9.5 ENE 15 20 8 11 1017.2 1015.8 0.0
14/08:00pm 26.6 23.9 9.0 33 9.8 E 13 17 7 9 1017.0 1015.6 0.0
14/07:30pm 27.4 24.8 9.3 32 10.1 E 13 17 7 9 1016.8 1015.4 0.0
14/07:00pm 28.1 25.4 8.9 30 10.7 E 13 17 7 9 1016.7 1015.3 0.0
14/06:30pm 29.3 26.7 7.8 26 11.9 E 11 13 6 7 1016.5 1015.1 0.0
14/06:00pm 30.3 26.7 6.9 23 12.8 E 15 19 8 10 1016.2 1014.8 0.0
14/05:30pm 31.1 27.4 6.2 21 13.5 SE 15 22 8 12 1016.0 1014.6 0.0
14/05:00pm 31.1 28.5 6.2 21 13.5 SE 9 17 5 9 1016.0 1014.6 0.0
14/04:30pm 30.9 27.7 6.7 22 13.2 SE 13 22 7 12 1016.1 1014.7 0.0
14/04:00pm 31.3 29.1 7.7 23 13.1 NE 9 17 5 9 1016.3 1014.9 0.0
14/03:30pm 31.3 28.8 6.4 21 13.6 N 9 15 5 8 1016.5 1015.1 0.0
14/03:00pm 31.4 28.5 6.5 21 13.6 WNW 11 22 6 12 1016.6 1015.2 0.0
14/02:30pm 31.2 27.7 7.0 22 13.3 NNW 15 26 8 14 1016.9 1015.5 0.0
14/02:00pm 30.5 27.9 7.7 24 12.6 W 11 17 6 9 1017.2 1015.8 0.0
14/01:30pm 30.5 27.6 8.3 25 12.4 NW 13 20 7 11 1017.5 1016.1 0.0
14/01:00pm 28.6 26.5 8.3 28 11.2 E 9 19 5 10 1017.9 1016.4 0.0
14/12:30pm 28.8 25.7 9.0 29 11.1 NE 15 20 8 11 1018.2 1016.8 0.0
14/12:00pm 28.1 25.8 10.3 33 10.2 N 13 24 7 13 1018.4 1017.0 0.0
14/11:30am 27.5 25.5 11.5 37 9.3 N 13 22 7 12 1018.7 1017.3 0.0
14/11:00am 26.5 24.1 11.4 39 8.7 N 15 28 8 15 1019.1 1017.7 0.0

Other Formats:

Comma delimited format used in spreadsheet applications
http://www.bom.gov.au/fwo/IDW60801/IDW60801.95634.axf

JavaScript Object Notation format (JSON) in row-major order
http://www.bom.gov.au/fwo/IDW60801/IDW60801.95634.json